createdAt,value
2023-01-02T00:01:21.903Z,95532.72
2023-01-02T00:03:48.514Z,95524.97
2023-01-02T00:06:17.834Z,95531.91
2023-01-02T00:08:44.440Z,95530.31
2023-01-02T00:11:10.989Z,95523.28
2023-01-02T00:13:37.625Z,95523.31
2023-01-02T00:16:04.412Z,95523.72
2023-01-02T00:18:31.054Z,95516.16
2023-01-02T00:21:02.499Z,95517.97
2023-01-02T00:23:29.063Z,95516.91
2023-01-02T00:25:55.604Z,95517.59
2023-01-02T00:28:22.396Z,95508.50
2023-01-02T00:30:48.948Z,95512.25
2023-01-02T00:33:16.058Z,95520.50
2023-01-02T00:35:42.653Z,95514.72
2023-01-02T00:38:09.239Z,95515.53
2023-01-02T00:40:35.966Z,95512.13
2023-01-02T00:43:02.578Z,95519.84
2023-01-02T00:45:29.295Z,95519.53
2023-01-02T00:47:55.945Z,95521.16
2023-01-02T00:50:22.492Z,95529.25
2023-01-02T00:52:49.087Z,95522.50
2023-01-02T00:55:15.725Z,95517.66
2023-01-02T00:57:42.291Z,95516.06
2023-01-02T01:00:09.278Z,95516.56
2023-01-02T01:02:36.045Z,95516.56
2023-01-02T01:05:02.767Z,95511.44
2023-01-02T01:07:29.828Z,95505.56
2023-01-02T01:09:56.374Z,95510.72
2023-01-02T01:12:22.942Z,95492.44
2023-01-02T01:14:49.545Z,95493.63
2023-01-02T01:17:16.085Z,95500.81
2023-01-02T01:19:42.695Z,95503.06
2023-01-02T01:22:09.304Z,95502.88
2023-01-02T01:24:36.193Z,95507.22
2023-01-02T01:27:03.219Z,95499.47
2023-01-02T01:29:29.814Z,95500.13
2023-01-02T01:31:56.478Z,95500.59
2023-01-02T01:34:23.008Z,95512.66
2023-01-02T01:36:49.624Z,95500.22
2023-01-02T01:39:16.258Z,95501.03
2023-01-02T01:41:43.162Z,95507.66
2023-01-02T01:44:47.048Z,95506.47
2023-01-02T01:47:26.426Z,95508.53
2023-01-02T01:50:06.189Z,95495.94
2023-01-02T01:52:35.200Z,95508.44
2023-01-02T01:55:15.940Z,95506.69
2023-01-02T01:57:51.533Z,95498.75
2023-01-02T02:00:18.372Z,95513.63
2023-01-02T02:02:48.325Z,95513.50
2023-01-02T02:05:19.579Z,95505.56
2023-01-02T02:07:55.342Z,95514.28
2023-01-02T02:10:21.891Z,95497.19
2023-01-02T02:12:48.460Z,95505.63
2023-01-02T02:15:20.656Z,95506.56
2023-01-02T02:18:00.160Z,95502.97
2023-01-02T02:20:29.806Z,95501.69
2023-01-02T02:23:02.648Z,95503.44
2023-01-02T02:25:44.362Z,95507.97
2023-01-02T02:28:27.663Z,95493.59
2023-01-02T02:31:00.528Z,95496.25
2023-01-02T02:33:55.102Z,95494.16
2023-01-02T02:36:36.482Z,95500.41
2023-01-02T02:39:59.909Z,95491.19
2023-01-02T02:42:47.788Z,95490.50
2023-01-02T02:45:55.506Z,95497.19
2023-01-02T02:48:51.451Z,95499.41
2023-01-02T02:51:25.690Z,95503.81
2023-01-02T02:54:02.201Z,95495.09
2023-01-02T02:56:31.291Z,95492.75
2023-01-02T02:58:58.451Z,95490.69
2023-01-02T03:01:30.838Z,95490.81
2023-01-02T03:03:57.882Z,95497.91
2023-01-02T03:06:47.529Z,95496.44
2023-01-02T03:09:52.687Z,95504.91
2023-01-02T03:12:32.711Z,95521.38
2023-01-02T03:15:21.288Z,95521.13
2023-01-02T03:18:03.939Z,95516.44
2023-01-02T03:20:44.265Z,95521.59
2023-01-02T03:23:20.023Z,95521.59
2023-01-02T03:25:47.791Z,95526.16
2023-01-02T03:28:18.351Z,95517.72
2023-01-02T03:30:48.164Z,95521.91
2023-01-02T03:33:18.830Z,95520.56
2023-01-02T03:35:50.455Z,95525.78
2023-01-02T03:38:25.739Z,95523.47
2023-01-02T03:41:09.266Z,95527.84
2023-01-02T03:43:39.544Z,95533.34
2023-01-02T03:46:17.645Z,95530.28
2023-01-02T03:48:53.779Z,95533.81
2023-01-02T03:51:20.701Z,95542.97
2023-01-02T03:53:50.088Z,95547.78
2023-01-02T03:56:27.006Z,95546.69
2023-01-02T03:59:02.277Z,95551.53
2023-01-02T04:01:45.727Z,95551.38
2023-01-02T04:04:50.197Z,95552.84
2023-01-02T04:07:54.955Z,95560.22
2023-01-02T04:10:22.775Z,95567.72
2023-01-02T04:12:55.095Z,95566.09
2023-01-02T04:15:28.647Z,95566.75
2023-01-02T04:18:00.373Z,95558.72
2023-01-02T04:20:33.822Z,95545.31
2023-01-02T04:23:28.932Z,95560.88
2023-01-02T04:26:04.547Z,95542.50
2023-01-02T04:28:33.828Z,95553.00
2023-01-02T04:31:19.489Z,95545.28
2023-01-02T04:33:59.065Z,95551.41
2023-01-02T04:36:25.760Z,95555.16
2023-01-02T04:38:52.380Z,95555.63
2023-01-02T04:41:27.307Z,95553.53
2023-01-02T04:43:57.166Z,95562.06
2023-01-02T04:46:25.702Z,95556.28
2023-01-02T04:48:53.199Z,95552.25
2023-01-02T04:51:20.005Z,95562.59
2023-01-02T04:53:51.337Z,95553.88
2023-01-02T04:56:18.063Z,95557.91
2023-01-02T04:58:45.874Z,95557.09
2023-01-02T05:01:15.221Z,95560.16
2023-01-02T05:03:43.438Z,95552.91
2023-01-02T05:06:10.609Z,95556.78
2023-01-02T05:08:37.934Z,95556.78
2023-01-02T05:11:13.069Z,95590.34
2023-01-02T05:13:39.969Z,95587.41
2023-01-02T05:16:07.416Z,95580.66
2023-01-02T05:18:34.605Z,95590.34
2023-01-02T05:21:31.150Z,95586.13
2023-01-02T05:23:59.814Z,95582.59
2023-01-02T05:26:26.855Z,95600.19
2023-01-02T05:28:54.124Z,95615.03
2023-01-02T05:31:21.128Z,95605.03
2023-01-02T05:33:54.817Z,95604.06
2023-01-02T05:36:22.469Z,95596.03
2023-01-02T05:38:49.273Z,95599.84
2023-01-02T05:41:16.188Z,95612.25
2023-01-02T05:43:42.791Z,95619.19
2023-01-02T05:46:15.739Z,95605.97
2023-01-02T05:48:43.210Z,95606.25
2023-01-02T05:51:12.728Z,95609.16
2023-01-02T05:53:39.403Z,95603.34
2023-01-02T05:56:10.167Z,95604.47
2023-01-02T05:58:38.795Z,95602.22
2023-01-02T06:01:09.856Z,95602.06
2023-01-02T06:03:36.703Z,95602.88
2023-01-02T06:06:05.119Z,95604.31
2023-01-02T06:08:31.897Z,95598.41
2023-01-02T06:10:58.499Z,95603.66
2023-01-02T06:13:25.179Z,95609.75
2023-01-02T06:15:51.915Z,95601.53
2023-01-02T06:18:18.483Z,95613.63
2023-01-02T06:20:45.003Z,95608.34
2023-01-02T06:23:11.630Z,95607.84
2023-01-02T06:25:38.221Z,95610.59
2023-01-02T06:28:04.945Z,95608.00
2023-01-02T06:30:31.541Z,95608.47
2023-01-02T06:32:58.232Z,95608.50
2023-01-02T06:35:24.769Z,95604.78
2023-01-02T06:37:51.268Z,95605.59
2023-01-02T06:40:17.818Z,95613.50
2023-01-02T06:42:44.825Z,95618.00
2023-01-02T06:45:11.969Z,95616.72
2023-01-02T06:47:38.500Z,95616.72
2023-01-02T06:50:05.489Z,95617.34
2023-01-02T06:52:32.048Z,95615.56
2023-01-02T06:54:58.649Z,95626.53
2023-01-02T06:57:25.261Z,95625.88
2023-01-02T06:59:51.765Z,95632.44
2023-01-02T07:02:18.430Z,95637.44
2023-01-02T07:04:44.986Z,95633.41
2023-01-02T07:07:11.583Z,95632.72
2023-01-02T07:09:38.111Z,95634.31
2023-01-02T07:12:04.984Z,95648.31
2023-01-02T07:14:31.564Z,95645.28
2023-01-02T07:16:58.230Z,95651.19
2023-01-02T07:19:24.806Z,95644.13
2023-01-02T07:21:51.545Z,95650.72
2023-01-02T07:24:18.115Z,95654.88
2023-01-02T07:26:44.644Z,95656.31
2023-01-02T07:29:11.328Z,95663.41
2023-01-02T07:31:37.902Z,95654.53
2023-01-02T07:34:04.577Z,95668.00
2023-01-02T07:36:31.128Z,95668.25
2023-01-02T07:38:57.683Z,95670.75
2023-01-02T07:41:25.721Z,95665.47
2023-01-02T07:43:56.008Z,95674.28
2023-01-02T07:46:23.090Z,95681.31
2023-01-02T07:48:50.586Z,95681.13
2023-01-02T07:51:24.568Z,95690.34
2023-01-02T07:53:53.461Z,95691.63
2023-01-02T07:56:20.159Z,95693.25
2023-01-02T07:58:46.747Z,95701.94
2023-01-02T08:01:13.537Z,95728.00
2023-01-02T08:03:40.545Z,95720.59
2023-01-02T08:06:10.045Z,95722.72
2023-01-02T08:08:37.570Z,95719.19
2023-01-02T08:11:09.952Z,95713.78
2023-01-02T08:13:37.884Z,95724.22
2023-01-02T08:16:15.839Z,95728.28
2023-01-02T08:18:42.519Z,95722.47
2023-01-02T08:21:09.934Z,95721.38
2023-01-02T08:23:37.445Z,95722.84
2023-01-02T08:26:06.670Z,95723.34
2023-01-02T08:28:34.718Z,95721.53
2023-01-02T08:31:01.624Z,95729.44
2023-01-02T08:33:28.839Z,95728.63
2023-01-02T08:35:56.742Z,95737.16
2023-01-02T08:38:23.362Z,95732.19
2023-01-02T08:40:50.908Z,95740.69
2023-01-02T08:43:17.447Z,95754.25
2023-01-02T08:45:44.038Z,95761.53
2023-01-02T08:48:21.438Z,95763.28
2023-01-02T08:50:49.847Z,95769.38
2023-01-02T08:53:16.828Z,95778.56
2023-01-02T08:55:43.355Z,95771.66
2023-01-02T08:58:10.525Z,95774.72
2023-01-02T09:00:37.091Z,95783.88
2023-01-02T09:03:03.837Z,95780.31
2023-01-02T09:05:31.155Z,95790.16
2023-01-02T09:07:58.800Z,95803.66
2023-01-02T09:10:26.014Z,95802.84
2023-01-02T09:12:52.654Z,95807.88
2023-01-02T09:15:19.723Z,95816.13
2023-01-02T09:17:46.288Z,95814.34
2023-01-02T09:20:12.847Z,95817.06
2023-01-02T09:22:40.713Z,95806.25
2023-01-02T09:25:08.057Z,95816.38
2023-01-02T09:27:34.677Z,95823.59
2023-01-02T09:30:01.242Z,95815.22
2023-01-02T09:32:27.770Z,95817.88
2023-01-02T09:34:54.385Z,95843.47
2023-01-02T09:37:20.921Z,95844.59
2023-01-02T09:39:47.526Z,95847.31
2023-01-02T09:42:17.114Z,95862.00
2023-01-02T09:44:49.357Z,95863.34
2023-01-02T09:47:21.202Z,95880.53
2023-01-02T09:50:00.772Z,95877.03
2023-01-02T09:52:59.578Z,95885.84
2023-01-02T09:55:41.438Z,95875.00
2023-01-02T09:58:39.109Z,95870.56
2023-01-02T10:01:12.562Z,95875.31
2023-01-02T10:03:53.873Z,95872.28
2023-01-02T10:06:24.956Z,95885.16
2023-01-02T10:09:17.572Z,95887.69
2023-01-02T10:11:56.257Z,95881.22
2023-01-02T10:14:44.526Z,95882.53
2023-01-02T10:17:15.545Z,95878.88
2023-01-02T10:19:55.339Z,95887.19
2023-01-02T10:22:34.972Z,95884.31
2023-01-02T10:25:19.349Z,95887.44
2023-01-02T10:28:02.182Z,95877.22
2023-01-02T10:30:36.120Z,95885.25
2023-01-02T10:33:12.363Z,95884.44
2023-01-02T10:35:45.909Z,95892.44
2023-01-02T10:38:15.402Z,95893.56
2023-01-02T10:40:44.884Z,95886.78
2023-01-02T10:43:11.884Z,95893.78
2023-01-02T10:45:38.735Z,95885.59
2023-01-02T10:48:05.636Z,95884.16
2023-01-02T10:50:40.171Z,95885.66
2023-01-02T10:53:29.968Z,95881.72
2023-01-02T10:55:56.724Z,95879.16
2023-01-02T10:58:26.187Z,95877.34
2023-01-02T11:01:04.585Z,95862.84
2023-01-02T11:03:31.399Z,95869.00
2023-01-02T11:06:10.328Z,95862.22
2023-01-02T11:08:58.971Z,95867.28
2023-01-02T11:11:28.130Z,95875.59
2023-01-02T11:14:02.421Z,95873.06
2023-01-02T11:16:29.005Z,95876.41
2023-01-02T11:18:58.817Z,95880.56
2023-01-02T11:21:29.838Z,95885.22
2023-01-02T11:24:25.767Z,95882.19
2023-01-02T11:26:53.386Z,95887.84
2023-01-02T11:29:38.162Z,95897.25
2023-01-02T11:32:04.908Z,95902.13
2023-01-02T11:34:37.856Z,95903.25
2023-01-02T11:37:16.981Z,95893.94
2023-01-02T11:39:58.449Z,95899.78
2023-01-02T11:42:51.069Z,95905.34
2023-01-02T11:45:19.128Z,95907.69
2023-01-02T11:47:52.711Z,95906.88
2023-01-02T11:50:23.818Z,95916.19
2023-01-02T11:52:59.519Z,95903.66
2023-01-02T11:55:53.188Z,95907.50
2023-01-02T11:58:36.774Z,95908.88
2023-01-02T12:01:30.049Z,95909.88
2023-01-02T12:03:57.205Z,95911.75
2023-01-02T12:06:32.514Z,95916.19
2023-01-02T12:09:01.799Z,95912.97
2023-01-02T12:12:08.176Z,95913.69
2023-01-02T12:14:54.932Z,95920.16
2023-01-02T12:17:56.960Z,95921.69
2023-01-02T12:21:01.060Z,95929.22
2023-01-02T12:23:48.713Z,95930.81
2023-01-02T12:26:21.877Z,95936.41
2023-01-02T12:29:12.804Z,95934.69
2023-01-02T12:31:49.511Z,95926.00
2023-01-02T12:34:21.706Z,95921.31
2023-01-02T12:37:18.424Z,95941.16
2023-01-02T12:39:54.030Z,95931.06
2023-01-02T12:42:20.496Z,95935.91
2023-01-02T12:44:52.431Z,95935.41
2023-01-02T12:47:28.077Z,95939.94
2023-01-02T12:50:17.472Z,95953.69
2023-01-02T12:53:08.774Z,95954.69
2023-01-02T12:55:47.377Z,95949.22
2023-01-02T12:58:34.935Z,95939.72
2023-01-02T13:01:10.506Z,95943.88
2023-01-02T13:04:21.703Z,95938.50
2023-01-02T13:06:57.112Z,95961.38
2023-01-02T13:09:42.856Z,95954.19
2023-01-02T13:12:14.540Z,95963.41
2023-01-02T13:14:46.665Z,95971.69
2023-01-02T13:17:37.932Z,95980.59
2023-01-02T13:20:34.184Z,95973.00
2023-01-02T13:23:09.879Z,95970.88
2023-01-02T13:25:44.928Z,95973.31
2023-01-02T13:28:13.336Z,95965.63
2023-01-02T13:31:00.925Z,95975.72
2023-01-02T13:33:41.317Z,95972.69
2023-01-02T13:36:22.846Z,95974.31
2023-01-02T13:38:53.910Z,95971.16
2023-01-02T13:41:21.315Z,95981.81
2023-01-02T13:43:56.347Z,95988.78
2023-01-02T13:47:01.425Z,95984.44
2023-01-02T13:49:20.018Z,95988.28
2023-01-02T13:51:49.243Z,95991.53
2023-01-02T13:54:20.701Z,95991.53
2023-01-02T13:57:15.348Z,96008.72
2023-01-02T14:00:13.737Z,96006.19
2023-01-02T14:02:40.451Z,96006.72
2023-01-02T14:05:45.176Z,96016.03
2023-01-02T14:08:26.725Z,96022.91
2023-01-02T14:11:10.893Z,96028.16
2023-01-02T14:13:39.343Z,96032.59
2023-01-02T14:16:14.838Z,96045.75
2023-01-02T14:18:46.408Z,96040.06
2023-01-02T14:21:20.756Z,96040.19
2023-01-02T14:24:16.056Z,96047.28
2023-01-02T14:26:38.116Z,96043.00
2023-01-02T14:29:12.365Z,96040.69
2023-01-02T14:31:39.444Z,96053.84
2023-01-02T14:34:06.484Z,96055.84
2023-01-02T14:36:42.787Z,96051.72
2023-01-02T14:39:27.014Z,96057.78
2023-01-02T14:42:11.867Z,96055.34
2023-01-02T14:44:42.037Z,96073.66
2023-01-02T14:47:19.726Z,96070.19
2023-01-02T14:49:58.525Z,96071.59
2023-01-02T14:52:32.850Z,96077.78
2023-01-02T14:55:13.537Z,96090.66
2023-01-02T14:57:44.888Z,96074.25
2023-01-02T15:00:28.492Z,96090.13
2023-01-02T15:03:14.286Z,96078.25
2023-01-02T15:05:48.719Z,96066.31
2023-01-02T15:08:25.457Z,96090.66
2023-01-02T15:10:56.051Z,96089.34
2023-01-02T15:13:27.075Z,96083.94
2023-01-02T15:15:56.313Z,96116.19
2023-01-02T15:18:29.208Z,96111.63
2023-01-02T15:21:04.157Z,96116.19
2023-01-02T15:23:30.732Z,96117.59
2023-01-02T15:26:31.532Z,96147.56
2023-01-02T15:28:44.036Z,96140.78
2023-01-02T15:31:15.601Z,96145.13
2023-01-02T15:33:42.497Z,96142.19
2023-01-02T15:36:16.684Z,96151.19
2023-01-02T15:38:44.359Z,96156.34
2023-01-02T15:41:18.558Z,96158.25
2023-01-02T15:44:04.887Z,96164.31
2023-01-02T15:46:31.918Z,96172.28
2023-01-02T15:49:00.302Z,96182.91
2023-01-02T15:51:40.365Z,96187.34
2023-01-02T15:54:14.843Z,96182.47
2023-01-02T15:56:41.656Z,96199.09
2023-01-02T15:59:24.975Z,96198.91
2023-01-02T16:01:51.628Z,96193.44
2023-01-02T16:04:29.971Z,96201.84
2023-01-02T16:06:59.481Z,96210.91
2023-01-02T16:09:28.666Z,96199.53
2023-01-02T16:12:02.249Z,96209.41
2023-01-02T16:14:42.392Z,96220.69
2023-01-02T16:17:22.729Z,96224.00
2023-01-02T16:19:59.975Z,96229.72
2023-01-02T16:22:41.548Z,96229.22
2023-01-02T16:25:13.396Z,96228.41
2023-01-02T16:27:58.486Z,96227.47
2023-01-02T16:30:39.083Z,96242.28
2023-01-02T16:33:34.310Z,96241.69
2023-01-02T16:36:03.860Z,96243.09
2023-01-02T16:38:31.902Z,96258.66
2023-01-02T16:41:03.411Z,96261.66
2023-01-02T16:43:33.476Z,96273.38
2023-01-02T16:46:03.263Z,96266.34
2023-01-02T16:48:30.761Z,96274.59
2023-01-02T16:50:58.892Z,96282.25
2023-01-02T16:53:31.466Z,96274.44
2023-01-02T16:55:58.484Z,96284.63
2023-01-02T16:58:27.894Z,96277.47
2023-01-02T17:00:56.021Z,96287.78
2023-01-02T17:03:25.244Z,96294.59
2023-01-02T17:06:01.590Z,96299.22
2023-01-02T17:08:30.280Z,96298.66
2023-01-02T17:10:58.737Z,96302.97
2023-01-02T17:13:25.878Z,96303.00
2023-01-02T17:15:52.411Z,96311.44
2023-01-02T17:18:19.037Z,96307.41
2023-01-02T17:20:45.563Z,96315.31
2023-01-02T17:23:12.143Z,96334.69
2023-01-02T17:25:43.929Z,96328.75
2023-01-02T17:28:11.256Z,96329.03
2023-01-02T17:30:40.544Z,96324.69
2023-01-02T17:33:07.114Z,96340.84
2023-01-02T17:35:34.795Z,96341.94
2023-01-02T17:38:01.348Z,96348.50
2023-01-02T17:40:28.044Z,96345.22
2023-01-02T17:42:54.679Z,96355.09
2023-01-02T17:45:21.322Z,96351.81
2023-01-02T17:48:02.258Z,96350.50
2023-01-02T17:50:31.840Z,96370.44
2023-01-02T17:52:58.561Z,96375.91
2023-01-02T17:55:25.124Z,96379.16
2023-01-02T17:57:51.676Z,96381.28
2023-01-02T18:00:18.540Z,96385.84
2023-01-02T18:02:45.305Z,96391.31
2023-01-02T18:05:12.078Z,96380.78
2023-01-02T18:07:38.630Z,96390.63
2023-01-02T18:10:09.210Z,96395.53
2023-01-02T18:12:38.073Z,96380.28
2023-01-02T18:15:13.710Z,96406.72
2023-01-02T18:17:40.351Z,96414.59
2023-01-02T18:20:12.001Z,96412.38
2023-01-02T18:22:43.999Z,96408.84
2023-01-02T18:25:20.164Z,96407.22
2023-01-02T18:27:47.647Z,96412.91
2023-01-02T18:30:22.981Z,96418.41
2023-01-02T18:32:57.282Z,96424.19
2023-01-02T18:38:28.848Z,96430.50
2023-01-02T18:40:55.594Z,96430.50
2023-01-02T18:43:39.430Z,96440.28
2023-01-02T18:46:21.308Z,96441.91
2023-01-02T18:48:48.126Z,96448.44
2023-01-02T18:51:21.936Z,96453.38
2023-01-02T18:53:51.186Z,96458.53
2023-01-02T18:56:19.573Z,96450.38
2023-01-02T18:59:05.625Z,96464.25
2023-01-02T19:01:39.492Z,96467.25
2023-01-02T19:04:18.981Z,96463.16
2023-01-02T19:06:53.245Z,96469.16
2023-01-02T19:09:29.499Z,96473.25
2023-01-02T19:12:36.362Z,96469.19
2023-01-02T19:15:42.143Z,96482.56
2023-01-02T19:18:14.319Z,96480.13
2023-01-02T19:20:44.133Z,96484.47
2023-01-02T19:23:22.080Z,96479.28
2023-01-02T19:25:49.418Z,96487.19
2023-01-02T19:28:26.398Z,96492.88
2023-01-02T19:30:52.990Z,96488.25
2023-01-02T19:33:28.796Z,96498.34
2023-01-02T19:36:01.189Z,96503.28
2023-01-02T19:38:31.273Z,96495.41
2023-01-02T19:40:58.820Z,96512.31
2023-01-02T19:43:25.640Z,96513.91
2023-01-02T19:45:53.341Z,96520.72
2023-01-02T19:48:19.994Z,96523.16
2023-01-02T19:50:47.631Z,96517.19
2023-01-02T19:53:14.185Z,96515.56
2023-01-02T19:55:40.791Z,96516.66
2023-01-02T19:58:07.468Z,96523.19
2023-01-02T20:00:34.102Z,96527.81
2023-01-02T20:03:01.076Z,96524.81
2023-01-02T20:05:28.748Z,96515.56
2023-01-02T20:07:58.049Z,96532.16
2023-01-02T20:10:24.910Z,96535.19
2023-01-02T20:12:51.816Z,96532.44
2023-01-02T20:15:24.749Z,96529.19
2023-01-02T20:17:52.452Z,96529.44
2023-01-02T20:20:21.504Z,96528.09
2023-01-02T20:22:51.584Z,96530.81
2023-01-02T20:25:25.811Z,96533.53
2023-01-02T20:27:56.466Z,96539.81
2023-01-02T20:30:25.119Z,96533.81
2023-01-02T20:32:53.084Z,96535.69
2023-01-02T20:35:19.687Z,96540.31
2023-01-02T20:37:46.742Z,96538.97
2023-01-02T20:40:13.453Z,96543.59
2023-01-02T20:42:40.076Z,96549.03
2023-01-02T20:45:07.348Z,96546.03
2023-01-02T20:47:36.301Z,96548.75
2023-01-02T20:50:03.673Z,96559.66
2023-01-02T20:52:30.359Z,96559.38
2023-01-02T20:54:56.909Z,96564.81
2023-01-02T20:57:23.493Z,96558.59
2023-01-02T20:59:50.227Z,96562.94
2023-01-02T21:02:17.090Z,96564.59
2023-01-02T21:04:43.921Z,96567.31
2023-01-02T21:07:10.780Z,96576.81
2023-01-02T21:09:37.342Z,96574.38
2023-01-02T21:12:03.935Z,96574.38
2023-01-02T21:14:37.206Z,96582.28
2023-01-02T21:17:04.431Z,96583.38
2023-01-02T21:19:31.003Z,96580.66
2023-01-02T21:21:57.644Z,96582.81
2023-01-02T21:24:24.179Z,96581.19
2023-01-02T21:26:50.814Z,96587.72
2023-01-02T21:29:17.367Z,96585.28
2023-01-02T21:31:43.953Z,96591.53
2023-01-02T21:34:11.702Z,96590.16
2023-01-02T21:36:38.294Z,96589.59
2023-01-02T21:39:04.945Z,96597.75
2023-01-02T21:41:49.797Z,96584.16
2023-01-02T21:44:16.381Z,96592.34
2023-01-02T21:46:42.916Z,96598.06
2023-01-02T21:49:09.615Z,96596.44
2023-01-02T21:51:36.995Z,96597.25
2023-01-02T21:54:03.710Z,96603.75
2023-01-02T21:56:30.644Z,96595.06
2023-01-02T21:58:57.705Z,96602.38
2023-01-02T22:01:24.427Z,96602.91
2023-01-02T22:03:51.040Z,96603.38
2023-01-02T22:06:18.389Z,96602.03
2023-01-02T22:08:45.055Z,96612.31
2023-01-02T22:11:29.876Z,96616.13
2023-01-02T22:13:56.444Z,96623.19
2023-01-02T22:16:23.063Z,96616.69
2023-01-02T22:18:50.709Z,96606.91
2023-01-02T22:21:17.410Z,96616.44
2023-01-02T22:23:43.961Z,96614.56
2023-01-02T22:26:10.535Z,96620.53
2023-01-02T22:28:37.731Z,96636.56
2023-01-02T22:31:04.443Z,96627.06
2023-01-02T22:33:31.052Z,96639.56
2023-01-02T22:35:57.629Z,96652.13
2023-01-02T22:38:24.167Z,96649.97
2023-01-02T22:40:50.890Z,96645.28
2023-01-02T22:43:24.377Z,96650.47
2023-01-02T22:45:53.101Z,96660.75
2023-01-02T22:48:23.139Z,96664.22
2023-01-02T22:50:52.945Z,96671.03
2023-01-02T22:53:34.876Z,96667.97
2023-01-02T22:56:06.323Z,96670.94
2023-01-02T22:58:32.905Z,96677.44
2023-01-02T23:01:02.132Z,96671.75
2023-01-02T23:03:31.986Z,96677.22
2023-01-02T23:05:58.706Z,96681.28
2023-01-02T23:08:25.514Z,96682.91
2023-01-02T23:10:52.463Z,96687.28
2023-01-02T23:13:19.157Z,96688.06
2023-01-02T23:16:21.074Z,96687.84
2023-01-02T23:19:06.386Z,96678.09
2023-01-02T23:21:34.573Z,96679.50
2023-01-02T23:24:01.177Z,96678.13
2023-01-02T23:26:32.067Z,96674.84
2023-01-02T23:29:07.378Z,96679.19
2023-01-02T23:31:37.134Z,96671.47
2023-01-02T23:34:04.259Z,96680.38
2023-01-02T23:36:30.935Z,96684.47
2023-01-02T23:38:57.531Z,96689.94
2023-01-02T23:41:24.123Z,96690.47
2023-01-02T23:43:51.580Z,96687.13
2023-01-02T23:46:18.773Z,96679.97
2023-01-02T23:48:45.408Z,96679.97
2023-01-02T23:51:12.238Z,96684.31
2023-01-02T23:53:38.921Z,96681.31
2023-01-02T23:56:17.160Z,96688.38
2023-01-02T23:58:43.741Z,96685.94
